createdAt,value
2022-12-18T00:01:38.102Z,-15.83
2022-12-18T00:04:16.603Z,-15.86
2022-12-18T00:06:44.982Z,-15.88
2022-12-18T00:09:13.843Z,-15.90
2022-12-18T00:11:43.765Z,-15.94
2022-12-18T00:14:15.223Z,-15.96
2022-12-18T00:16:47.612Z,-16.00
2022-12-18T00:19:17.303Z,-16.00
2022-12-18T00:21:46.303Z,-16.04
2022-12-18T00:24:14.902Z,-16.15
2022-12-18T00:26:43.084Z,-16.22
2022-12-18T00:29:16.193Z,-16.31
2022-12-18T00:31:45.141Z,-16.32
2022-12-18T00:34:14.929Z,-16.33
2022-12-18T00:36:44.195Z,-16.31
2022-12-18T00:39:13.683Z,-16.29
2022-12-18T00:42:00.641Z,-16.26
2022-12-18T00:44:28.960Z,-16.22
2022-12-18T00:46:57.510Z,-16.30
2022-12-18T00:49:25.895Z,-16.34
2022-12-18T00:51:54.106Z,-16.42
2022-12-18T00:54:22.581Z,-16.52
2022-12-18T00:56:51.039Z,-16.56
2022-12-18T00:59:20.518Z,-16.63
2022-12-18T01:01:49.356Z,-16.73
2022-12-18T01:04:17.936Z,-16.77
2022-12-18T01:06:46.338Z,-16.79
2022-12-18T01:09:15.479Z,-16.83
2022-12-18T01:11:43.983Z,-16.86
2022-12-18T01:14:12.664Z,-16.94
2022-12-18T01:16:41.299Z,-17.00
2022-12-18T01:19:09.748Z,-17.00
2022-12-18T01:21:38.727Z,-17.04
2022-12-18T01:24:08.399Z,-17.07
2022-12-18T01:26:36.614Z,-17.12
2022-12-18T01:29:05.237Z,-17.20
2022-12-18T01:31:35.786Z,-17.29
2022-12-18T01:34:06.528Z,-17.25
2022-12-18T01:36:38.614Z,-17.27
2022-12-18T01:39:12.719Z,-17.23
2022-12-18T01:42:00.465Z,-17.24
2022-12-18T01:45:09.103Z,-17.26
2022-12-18T01:47:55.030Z,-17.29
2022-12-18T01:50:31.902Z,-17.32
2022-12-18T01:53:25.395Z,-17.34
2022-12-18T01:55:59.410Z,-17.36
2022-12-18T01:59:04.228Z,-17.39
2022-12-18T02:01:34.940Z,-17.37
2022-12-18T02:04:27.147Z,-17.36
2022-12-18T02:07:25.323Z,-17.37
2022-12-18T02:10:08.200Z,-17.40
2022-12-18T02:12:54.110Z,-17.38
2022-12-18T02:16:11.154Z,-17.42
2022-12-18T02:18:49.523Z,-17.46
2022-12-18T02:21:37.517Z,-17.48
2022-12-18T02:24:30.272Z,-17.55
2022-12-18T02:27:09.450Z,-17.61
2022-12-18T02:29:57.903Z,-17.62
2022-12-18T02:32:45.089Z,-17.59
2022-12-18T02:35:21.060Z,-17.61
2022-12-18T02:37:50.310Z,-17.66
2022-12-18T02:40:21.223Z,-17.66
2022-12-18T02:42:49.577Z,-17.71
2022-12-18T02:45:18.535Z,-17.77
2022-12-18T02:47:51.322Z,-17.76
2022-12-18T02:50:46.846Z,-17.75
2022-12-18T02:53:57.453Z,-17.78
2022-12-18T02:56:53.717Z,-17.88
2022-12-18T02:59:58.245Z,-17.93
2022-12-18T03:02:53.850Z,-17.96
2022-12-18T03:06:06.653Z,-17.99
2022-12-18T03:08:44.089Z,-17.97
2022-12-18T03:11:15.635Z,-18.00
2022-12-18T03:13:57.976Z,-17.98
2022-12-18T03:16:32.857Z,-18.00
2022-12-18T03:19:19.527Z,-18.00
2022-12-18T03:21:57.280Z,-18.03
2022-12-18T03:24:30.566Z,-18.09
2022-12-18T03:27:07.930Z,-18.13
2022-12-18T03:30:09.507Z,-18.13
2022-12-18T03:33:00.267Z,-18.11
2022-12-18T03:35:40.512Z,-18.15
2022-12-18T03:38:10.883Z,-18.21
2022-12-18T03:41:15.154Z,-18.27
2022-12-18T03:44:02.339Z,-18.33
2022-12-18T03:46:47.463Z,-18.35
2022-12-18T03:49:49.680Z,-18.30
2022-12-18T03:53:15.100Z,-18.27
2022-12-18T03:55:45.398Z,-18.28
2022-12-18T03:58:21.031Z,-18.32
2022-12-18T04:00:54.133Z,-18.33
2022-12-18T04:03:26.662Z,-18.35
2022-12-18T04:05:59.316Z,-18.39
2022-12-18T04:08:28.697Z,-18.42
2022-12-18T04:10:57.591Z,-18.48
2022-12-18T04:13:39.560Z,-18.50
2022-12-18T04:16:08.775Z,-18.49
2022-12-18T04:18:37.317Z,-18.53
2022-12-18T04:21:06.182Z,-18.59
2022-12-18T04:23:34.659Z,-18.68
2022-12-18T04:26:03.094Z,-18.71
2022-12-18T04:28:31.403Z,-18.76
2022-12-18T04:30:59.551Z,-18.79
2022-12-18T04:33:27.919Z,-18.78
2022-12-18T04:35:56.201Z,-18.82
2022-12-18T04:38:24.447Z,-18.87
2022-12-18T04:40:52.780Z,-18.88
2022-12-18T04:43:21.424Z,-18.93
2022-12-18T04:45:52.520Z,-18.95
2022-12-18T04:48:21.784Z,-19.04
2022-12-18T04:50:50.119Z,-19.12
2022-12-18T04:53:18.815Z,-19.13
2022-12-18T04:55:47.162Z,-19.17
2022-12-18T04:58:15.791Z,-19.28
2022-12-18T05:00:44.142Z,-19.31
2022-12-18T05:03:12.470Z,-19.32
2022-12-18T05:05:40.889Z,-19.36
2022-12-18T05:08:09.594Z,-19.38
2022-12-18T05:10:39.308Z,-19.39
2022-12-18T05:13:07.965Z,-19.45
2022-12-18T05:15:36.471Z,-19.48
2022-12-18T05:18:05.888Z,-19.45
2022-12-18T05:20:34.180Z,-19.45
2022-12-18T05:23:02.774Z,-19.47
2022-12-18T05:25:31.105Z,-19.54
2022-12-18T05:27:59.541Z,-19.59
2022-12-18T05:30:29.073Z,-19.59
2022-12-18T05:32:57.417Z,-19.59
2022-12-18T05:35:26.106Z,-19.56
2022-12-18T05:37:54.540Z,-19.58
2022-12-18T05:40:22.847Z,-19.57
2022-12-18T05:42:51.478Z,-19.61
2022-12-18T05:45:19.857Z,-19.65
2022-12-18T05:47:48.206Z,-19.69
2022-12-18T05:50:16.825Z,-19.72
2022-12-18T05:52:47.896Z,-19.77
2022-12-18T05:55:16.272Z,-19.81
2022-12-18T05:57:45.407Z,-19.86
2022-12-18T06:00:15.247Z,-19.88
2022-12-18T06:02:43.593Z,-19.87
2022-12-18T06:05:12.375Z,-19.91
2022-12-18T06:07:40.723Z,-19.90
2022-12-18T06:10:09.740Z,-19.93
2022-12-18T06:12:37.984Z,-19.93
2022-12-18T06:15:07.844Z,-19.96
2022-12-18T06:17:37.143Z,-19.95
2022-12-18T06:20:08.197Z,-20.01
2022-12-18T06:22:36.462Z,-20.08
2022-12-18T06:25:05.793Z,-20.09
2022-12-18T06:27:35.156Z,-20.09
2022-12-18T06:30:04.209Z,-20.11
2022-12-18T06:32:32.932Z,-20.08
2022-12-18T06:35:01.381Z,-20.07
2022-12-18T06:37:29.734Z,-20.11
2022-12-18T06:39:58.069Z,-20.11
2022-12-18T06:42:29.730Z,-20.12
2022-12-18T06:44:58.057Z,-20.13
2022-12-18T06:47:26.611Z,-20.20
2022-12-18T06:49:57.777Z,-20.17
2022-12-18T06:52:26.026Z,-20.20
2022-12-18T06:54:54.247Z,-20.21
2022-12-18T06:57:22.548Z,-20.24
2022-12-18T06:59:50.790Z,-20.23
2022-12-18T07:02:19.039Z,-20.25
2022-12-18T07:04:47.306Z,-20.27
2022-12-18T07:07:15.455Z,-20.22
2022-12-18T07:09:43.601Z,-20.18
2022-12-18T07:12:12.905Z,-20.22
2022-12-18T07:14:41.470Z,-20.33
2022-12-18T07:17:10.199Z,-20.34
2022-12-18T07:19:38.650Z,-20.35
2022-12-18T07:22:07.091Z,-20.41
2022-12-18T07:24:36.412Z,-20.40
2022-12-18T07:27:05.111Z,-20.35
2022-12-18T07:29:36.475Z,-20.32
2022-12-18T07:32:05.000Z,-20.35
2022-12-18T07:34:33.517Z,-20.41
2022-12-18T07:37:01.690Z,-20.43
2022-12-18T07:39:30.034Z,-20.49
2022-12-18T07:42:17.122Z,-20.43
2022-12-18T07:44:45.528Z,-20.40
2022-12-18T07:47:13.812Z,-20.42
2022-12-18T07:49:42.082Z,-20.44
2022-12-18T07:52:10.886Z,-20.46
2022-12-18T07:54:39.855Z,-20.46
2022-12-18T07:57:16.557Z,-20.50
2022-12-18T07:59:57.659Z,-20.51
2022-12-18T08:02:26.272Z,-20.52
2022-12-18T08:04:55.250Z,-20.57
2022-12-18T08:07:23.611Z,-20.58
2022-12-18T08:09:52.084Z,-20.58
2022-12-18T08:12:20.372Z,-20.53
2022-12-18T08:14:48.829Z,-20.47
2022-12-18T08:17:17.569Z,-20.47
2022-12-18T08:19:45.910Z,-20.46
2022-12-18T08:22:16.968Z,-20.47
2022-12-18T08:24:45.331Z,-20.49
2022-12-18T08:27:28.963Z,-20.48
2022-12-18T08:29:59.239Z,-20.50
2022-12-18T08:32:29.384Z,-20.52
2022-12-18T08:34:58.582Z,-20.56
2022-12-18T08:37:27.183Z,-20.56
2022-12-18T08:39:55.615Z,-20.62
2022-12-18T08:42:42.595Z,-20.66
2022-12-18T08:45:11.386Z,-20.64
2022-12-18T08:47:39.780Z,-20.69
2022-12-18T08:50:08.734Z,-20.76
2022-12-18T08:52:37.119Z,-20.72
2022-12-18T08:55:06.588Z,-20.69
2022-12-18T08:57:34.948Z,-20.69
2022-12-18T09:00:03.379Z,-20.72
2022-12-18T09:02:31.891Z,-20.72
2022-12-18T09:05:00.422Z,-20.76
2022-12-18T09:07:28.886Z,-20.82
2022-12-18T09:09:57.213Z,-20.82
2022-12-18T09:12:25.582Z,-20.82
2022-12-18T09:14:53.795Z,-20.79
2022-12-18T09:17:22.186Z,-20.75
2022-12-18T09:19:50.824Z,-20.72
2022-12-18T09:22:19.275Z,-20.80
2022-12-18T09:24:47.898Z,-20.83
2022-12-18T09:27:16.287Z,-20.87
2022-12-18T09:29:44.754Z,-20.88
2022-12-18T09:32:15.302Z,-20.92
2022-12-18T09:34:47.424Z,-20.94
2022-12-18T09:37:15.887Z,-20.93
2022-12-18T09:39:44.266Z,-20.89
2022-12-18T09:42:24.539Z,-20.89
2022-12-18T09:44:55.843Z,-20.92
2022-12-18T09:47:32.238Z,-20.94
2022-12-18T09:50:21.831Z,-20.96
2022-12-18T09:52:56.951Z,-20.93
2022-12-18T09:55:39.245Z,-20.91
2022-12-18T09:58:54.051Z,-20.96
2022-12-18T10:01:27.076Z,-21.03
2022-12-18T10:04:00.607Z,-21.07
2022-12-18T10:06:45.119Z,-21.08
2022-12-18T10:09:25.640Z,-21.10
2022-12-18T10:12:38.412Z,-21.09
2022-12-18T10:15:42.045Z,-21.05
2022-12-18T10:19:07.550Z,-21.08
2022-12-18T10:21:47.610Z,-21.13
2022-12-18T10:24:43.816Z,-21.16
2022-12-18T10:27:23.553Z,-21.16
2022-12-18T10:29:52.266Z,-21.14
2022-12-18T10:32:31.452Z,-21.13
2022-12-18T10:35:01.247Z,-21.17
2022-12-18T10:37:31.772Z,-21.18
2022-12-18T10:40:22.344Z,-21.12
2022-12-18T10:43:16.285Z,-21.12
2022-12-18T10:49:04.834Z,-21.14
2022-12-18T10:51:41.055Z,-21.16
2022-12-18T10:54:24.349Z,-21.17
2022-12-18T10:56:52.794Z,-21.17
2022-12-18T10:59:22.177Z,-21.19
2022-12-18T11:02:00.551Z,-21.18
2022-12-18T11:04:36.491Z,-21.21
2022-12-18T11:07:11.969Z,-21.19
2022-12-18T11:09:43.182Z,-21.22
2022-12-18T11:12:24.823Z,-21.23
2022-12-18T11:14:57.376Z,-21.20
2022-12-18T11:17:36.216Z,-21.25
2022-12-18T11:20:30.073Z,-21.24
2022-12-18T11:23:06.818Z,-21.26
2022-12-18T11:25:36.526Z,-21.24
2022-12-18T11:28:44.753Z,-21.22
2022-12-18T11:31:30.013Z,-21.17
2022-12-18T11:36:50.656Z,-21.19
2022-12-18T11:40:10.076Z,-21.15
2022-12-18T11:43:01.948Z,-21.15
2022-12-18T11:45:48.928Z,-21.21
2022-12-18T11:48:35.866Z,-21.22
2022-12-18T11:51:11.725Z,-21.21
2022-12-18T11:53:41.183Z,-21.25
2022-12-18T11:56:32.619Z,-21.31
2022-12-18T11:59:28.960Z,-21.32
2022-12-18T12:02:41.040Z,-21.31
2022-12-18T12:05:23.560Z,-21.32
2022-12-18T12:08:05.607Z,-21.31
2022-12-18T12:11:11.683Z,-21.32
2022-12-18T12:14:16.569Z,-21.32
2022-12-18T12:17:03.144Z,-21.28
2022-12-18T12:19:46.438Z,-21.32
2022-12-18T12:23:02.466Z,-21.40
2022-12-18T12:26:02.428Z,-21.47
2022-12-18T12:29:02.767Z,-21.46
2022-12-18T12:31:40.213Z,-21.45
2022-12-18T12:34:26.893Z,-21.43
2022-12-18T12:37:15.282Z,-21.43
2022-12-18T12:39:47.651Z,-21.45
2022-12-18T12:42:45.467Z,-21.44
2022-12-18T12:45:29.975Z,-21.40
2022-12-18T12:48:01.122Z,-21.36
2022-12-18T12:50:34.904Z,-21.33
2022-12-18T12:53:09.284Z,-21.33
2022-12-18T12:55:39.481Z,-21.41
2022-12-18T12:58:45.286Z,-21.43
2022-12-18T13:01:29.442Z,-21.39
2022-12-18T13:04:46.876Z,-21.40
2022-12-18T13:07:27.971Z,-21.42
2022-12-18T13:10:25.634Z,-21.41
2022-12-18T13:13:16.507Z,-21.44
2022-12-18T13:16:09.739Z,-21.51
2022-12-18T13:18:40.112Z,-21.47
2022-12-18T13:21:28.928Z,-21.44
2022-12-18T13:23:58.885Z,-21.43
2022-12-18T13:26:35.842Z,-21.48
2022-12-18T13:29:06.133Z,-21.52
2022-12-18T13:31:44.104Z,-21.52
2022-12-18T13:34:26.864Z,-21.49
2022-12-18T13:37:18.340Z,-21.48
2022-12-18T13:39:46.500Z,-21.44
2022-12-18T13:42:35.508Z,-21.49
2022-12-18T13:45:23.660Z,-21.53
2022-12-18T13:47:52.460Z,-21.54
2022-12-18T13:50:33.946Z,-21.51
2022-12-18T13:53:06.844Z,-21.57
2022-12-18T13:55:36.057Z,-21.59
2022-12-18T13:58:08.488Z,-21.59
2022-12-18T14:00:37.101Z,-21.59
2022-12-18T14:03:30.436Z,-21.58
2022-12-18T14:06:07.208Z,-21.59
2022-12-18T14:08:46.092Z,-21.56
2022-12-18T14:11:26.452Z,-21.55
2022-12-18T14:13:55.272Z,-21.56
2022-12-18T14:16:24.679Z,-21.56
2022-12-18T14:19:04.102Z,-21.58
2022-12-18T14:21:51.908Z,-21.58
2022-12-18T14:24:22.969Z,-21.58
2022-12-18T14:26:52.495Z,-21.59
2022-12-18T14:29:30.003Z,-21.62
2022-12-18T14:32:18.992Z,-21.63
2022-12-18T14:34:55.891Z,-21.73
2022-12-18T14:37:28.218Z,-21.73
2022-12-18T14:40:10.564Z,-21.75
2022-12-18T14:42:39.666Z,-21.77
2022-12-18T14:45:42.720Z,-21.78
2022-12-18T14:48:23.847Z,-21.77
2022-12-18T14:51:08.178Z,-21.79
2022-12-18T14:53:53.742Z,-21.78
2022-12-18T14:56:26.004Z,-21.75
2022-12-18T14:59:23.848Z,-21.74
2022-12-18T15:02:21.425Z,-21.79
2022-12-18T15:05:00.734Z,-21.83
2022-12-18T15:07:29.263Z,-21.87
2022-12-18T15:10:16.238Z,-21.92
2022-12-18T15:12:49.836Z,-21.88
2022-12-18T15:15:39.316Z,-21.90
2022-12-18T15:18:21.274Z,-21.93
2022-12-18T15:21:10.965Z,-21.92
2022-12-18T15:23:47.368Z,-21.94
2022-12-18T15:26:19.218Z,-21.98
2022-12-18T15:28:59.855Z,-21.94
2022-12-18T15:31:37.594Z,-21.93
2022-12-18T15:34:25.367Z,-21.94
2022-12-18T15:36:53.798Z,-21.95
2022-12-18T15:39:21.912Z,-21.95
2022-12-18T15:42:08.671Z,-21.99
2022-12-18T15:44:37.816Z,-21.96
2022-12-18T15:47:14.351Z,-22.01
2022-12-18T15:49:42.806Z,-22.04
2022-12-18T15:52:15.222Z,-22.09
2022-12-18T15:55:01.610Z,-22.07
2022-12-18T15:57:29.927Z,-22.09
2022-12-18T15:59:59.475Z,-22.12
2022-12-18T16:02:29.843Z,-22.12
2022-12-18T16:04:58.421Z,-22.12
2022-12-18T16:07:29.174Z,-22.15
2022-12-18T16:10:01.256Z,-22.15
2022-12-18T16:12:30.853Z,-22.18
2022-12-18T16:14:59.038Z,-22.25
2022-12-18T16:17:27.304Z,-22.31
2022-12-18T16:19:55.560Z,-22.34
2022-12-18T16:22:29.533Z,-22.34
2022-12-18T16:24:59.426Z,-22.31
2022-12-18T16:27:27.646Z,-22.30
2022-12-18T16:29:56.187Z,-22.29
2022-12-18T16:32:24.901Z,-22.30
2022-12-18T16:34:53.307Z,-22.29
2022-12-18T16:37:21.612Z,-22.31
2022-12-18T16:39:49.879Z,-22.33
2022-12-18T16:42:21.320Z,-22.33
2022-12-18T16:44:51.087Z,-22.30
2022-12-18T16:47:20.290Z,-22.25
2022-12-18T16:49:52.001Z,-22.28
2022-12-18T16:52:21.413Z,-22.35
2022-12-18T16:54:49.903Z,-22.35
2022-12-18T16:57:25.386Z,-22.32
2022-12-18T16:59:55.482Z,-22.28
2022-12-18T17:02:28.951Z,-22.23
2022-12-18T17:04:59.448Z,-22.20
2022-12-18T17:07:29.198Z,-22.18
2022-12-18T17:09:57.893Z,-22.20
2022-12-18T17:12:27.070Z,-22.22
2022-12-18T17:14:55.604Z,-22.21
2022-12-18T17:17:24.276Z,-22.18
2022-12-18T17:19:53.723Z,-22.14
2022-12-18T17:22:26.289Z,-22.08
2022-12-18T17:24:54.503Z,-22.06
2022-12-18T17:27:22.690Z,-22.06
2022-12-18T17:29:50.934Z,-22.04
2022-12-18T17:32:19.642Z,-22.02
2022-12-18T17:34:47.988Z,-21.98
2022-12-18T17:37:16.784Z,-21.93
2022-12-18T17:39:45.805Z,-21.94
2022-12-18T17:42:15.928Z,-21.95
2022-12-18T17:44:45.778Z,-21.92
2022-12-18T17:47:15.125Z,-21.83
2022-12-18T17:49:43.379Z,-21.80
2022-12-18T17:52:12.011Z,-21.77
2022-12-18T17:54:42.431Z,-21.73
2022-12-18T17:57:11.239Z,-21.72
2022-12-18T17:59:39.571Z,-21.79
2022-12-18T18:02:10.564Z,-21.75
2022-12-18T18:07:25.911Z,-21.71
2022-12-18T18:09:54.848Z,-21.75
2022-12-18T18:12:42.159Z,-21.76
2022-12-18T18:15:11.785Z,-21.73
2022-12-18T18:17:40.664Z,-21.74
2022-12-18T18:20:10.201Z,-21.74
2022-12-18T18:22:39.710Z,-21.71
2022-12-18T18:25:12.476Z,-21.70
2022-12-18T18:27:42.230Z,-21.69
2022-12-18T18:30:16.831Z,-21.63
2022-12-18T18:32:45.915Z,-21.60
2022-12-18T18:35:45.168Z,-21.54
2022-12-18T18:38:06.325Z,-21.47
2022-12-18T18:40:35.354Z,-21.51
2022-12-18T18:43:04.900Z,-21.52
2022-12-18T18:45:35.282Z,-21.48
2022-12-18T18:48:13.272Z,-21.48
2022-12-18T18:50:45.067Z,-21.47
2022-12-18T18:53:13.934Z,-21.41
2022-12-18T18:55:43.199Z,-21.36
2022-12-18T18:58:12.260Z,-21.33
2022-12-18T19:00:41.525Z,-21.28
2022-12-18T19:03:10.602Z,-21.25
2022-12-18T19:05:42.956Z,-21.24
2022-12-18T19:08:13.461Z,-21.26
2022-12-18T19:10:43.063Z,-21.26
2022-12-18T19:13:24.995Z,-21.24
2022-12-18T19:15:57.879Z,-21.22
2022-12-18T19:18:28.002Z,-21.17
2022-12-18T19:21:00.967Z,-21.14
2022-12-18T19:23:32.271Z,-21.15
2022-12-18T19:28:56.270Z,-20.99
2022-12-18T19:31:29.208Z,-20.94
2022-12-18T19:34:01.693Z,-20.91
2022-12-18T19:36:32.310Z,-20.93
2022-12-18T19:39:06.142Z,-20.91
2022-12-18T19:41:35.259Z,-20.94
2022-12-18T19:44:08.331Z,-20.95
2022-12-18T19:46:41.811Z,-20.89
2022-12-18T19:49:18.199Z,-20.92
2022-12-18T19:51:47.685Z,-20.94
2022-12-18T19:54:19.430Z,-20.94
2022-12-18T19:56:48.680Z,-20.98
2022-12-18T19:59:17.911Z,-21.08
2022-12-18T20:01:47.333Z,-21.05
2022-12-18T20:04:17.142Z,-21.05
2022-12-18T20:06:52.847Z,-21.04
2022-12-18T20:09:23.017Z,-21.06
2022-12-18T20:11:52.716Z,-21.01
2022-12-18T20:14:23.419Z,-20.90
2022-12-18T20:16:53.973Z,-21.00
2022-12-18T20:19:23.856Z,-21.10
2022-12-18T20:21:53.091Z,-21.09
2022-12-18T20:24:22.143Z,-21.03
2022-12-18T20:26:51.146Z,-21.04
2022-12-18T20:29:20.127Z,-21.07
2022-12-18T20:31:48.998Z,-21.13
2022-12-18T20:34:18.333Z,-21.17
2022-12-18T20:36:48.288Z,-21.17
2022-12-18T20:39:19.208Z,-21.17
2022-12-18T20:41:49.231Z,-21.10
2022-12-18T20:44:23.454Z,-21.09
2022-12-18T20:47:06.667Z,-21.07
2022-12-18T20:49:38.102Z,-20.99
2022-12-18T20:52:09.358Z,-20.96
2022-12-18T20:54:38.267Z,-21.00
2022-12-18T20:57:07.327Z,-21.04
2022-12-18T20:59:36.315Z,-21.06
2022-12-18T21:02:05.456Z,-21.08
2022-12-18T21:04:34.660Z,-21.02
2022-12-18T21:07:03.850Z,-20.98
2022-12-18T21:09:38.245Z,-20.92
2022-12-18T21:12:45.357Z,-20.91
2022-12-18T21:15:28.483Z,-20.95
2022-12-18T21:17:57.996Z,-21.01
2022-12-18T21:20:26.919Z,-21.00
2022-12-18T21:22:56.405Z,-20.98
2022-12-18T21:25:31.614Z,-20.99
2022-12-18T21:28:00.795Z,-20.98
2022-12-18T21:30:30.040Z,-20.99
2022-12-18T21:32:58.851Z,-20.86
2022-12-18T21:35:27.913Z,-20.88
2022-12-18T21:37:59.907Z,-21.00
2022-12-18T21:40:31.464Z,-21.08
2022-12-18T21:43:18.579Z,-21.16
2022-12-18T21:45:47.578Z,-21.29
2022-12-18T21:48:16.816Z,-21.30
2022-12-18T21:50:46.310Z,-21.33
2022-12-18T21:53:15.164Z,-21.36
2022-12-18T21:55:44.411Z,-21.39
2022-12-18T21:58:13.336Z,-21.39
2022-12-18T22:00:46.986Z,-21.33
2022-12-18T22:03:19.263Z,-21.34
2022-12-18T22:05:56.203Z,-21.30
2022-12-18T22:08:47.993Z,-21.36
2022-12-18T22:11:17.309Z,-21.38
2022-12-18T22:13:47.066Z,-21.45
2022-12-18T22:16:17.067Z,-21.47
2022-12-18T22:18:46.008Z,-21.50
2022-12-18T22:21:34.537Z,-21.58
2022-12-18T22:24:19.608Z,-21.68
2022-12-18T22:26:50.140Z,-21.72
2022-12-18T22:29:41.768Z,-21.82
2022-12-18T22:32:16.782Z,-21.86
2022-12-18T22:34:48.934Z,-21.82
2022-12-18T22:37:17.828Z,-21.80
2022-12-18T22:39:46.796Z,-21.87
2022-12-18T22:42:15.927Z,-21.89
2022-12-18T22:44:44.902Z,-21.89
2022-12-18T22:47:13.833Z,-21.97
2022-12-18T22:49:42.901Z,-22.02
2022-12-18T22:52:12.218Z,-22.00
2022-12-18T22:54:42.166Z,-21.99
2022-12-18T22:57:11.458Z,-21.99
2022-12-18T22:59:41.003Z,-21.95
2022-12-18T23:02:10.005Z,-21.91
2022-12-18T23:04:38.936Z,-21.87
2022-12-18T23:07:08.868Z,-21.85
2022-12-18T23:09:40.723Z,-21.90
2022-12-18T23:12:15.157Z,-21.97
2022-12-18T23:14:44.386Z,-22.00
2022-12-18T23:17:13.457Z,-22.04
2022-12-18T23:19:48.564Z,-22.13
2022-12-18T23:22:19.206Z,-22.14
2022-12-18T23:24:48.370Z,-22.14
2022-12-18T23:27:17.286Z,-22.10
2022-12-18T23:29:46.187Z,-22.09
2022-12-18T23:32:16.798Z,-22.07
2022-12-18T23:34:45.762Z,-21.92
2022-12-18T23:37:35.307Z,-21.91
2022-12-18T23:40:04.167Z,-22.05
2022-12-18T23:42:32.939Z,-22.10
2022-12-18T23:45:15.834Z,-22.10
2022-12-18T23:47:48.752Z,-22.10
2022-12-18T23:50:22.099Z,-22.14
2022-12-18T23:53:00.687Z,-22.20
2022-12-18T23:55:40.323Z,-22.29
2022-12-18T23:58:18.345Z,-22.28
